sensor_id;sensor_type;location;lat;lon;timestamp;P1;durP1;ratioP1;P2;durP2;ratioP2
40515;SDS011;26216;53.724;9.898;2023-05-07T00:00:39;6.80;;;5.57;;
40515;SDS011;26216;53.724;9.898;2023-05-07T00:03:05;6.65;;;5.82;;
40515;SDS011;26216;53.724;9.898;2023-05-07T00:05:31;6.40;;;5.60;;
40515;SDS011;26216;53.724;9.898;2023-05-07T00:07:57;7.78;;;6.13;;
40515;SDS011;26216;53.724;9.898;2023-05-07T00:10:23;8.35;;;7.43;;
40515;SDS011;26216;53.724;9.898;2023-05-07T00:12:50;8.50;;;6.60;;
40515;SDS011;26216;53.724;9.898;2023-05-07T00:15:16;8.13;;;6.88;;
40515;SDS011;26216;53.724;9.898;2023-05-07T00:17:42;6.53;;;5.82;;
40515;SDS011;26216;53.724;9.898;2023-05-07T00:20:08;7.45;;;5.78;;
40515;SDS011;26216;53.724;9.898;2023-05-07T00:22:34;7.70;;;6.10;;
40515;SDS011;26216;53.724;9.898;2023-05-07T00:25:00;8.65;;;6.22;;
40515;SDS011;26216;53.724;9.898;2023-05-07T00:27:26;6.80;;;5.78;;
40515;SDS011;26216;53.724;9.898;2023-05-07T00:29:52;6.22;;;5.25;;
40515;SDS011;26216;53.724;9.898;2023-05-07T00:32:17;8.32;;;6.25;;
40515;SDS011;26216;53.724;9.898;2023-05-07T00:34:43;5.80;;;4.97;;
40515;SDS011;26216;53.724;9.898;2023-05-07T00:37:09;6.45;;;5.50;;
40515;SDS011;26216;53.724;9.898;2023-05-07T00:39:37;5.50;;;4.72;;
40515;SDS011;26216;53.724;9.898;2023-05-07T00:42:03;9.25;;;6.75;;
40515;SDS011;26216;53.724;9.898;2023-05-07T00:44:29;7.28;;;6.40;;
40515;SDS011;26216;53.724;9.898;2023-05-07T00:46:55;6.82;;;6.13;;
40515;SDS011;26216;53.724;9.898;2023-05-07T00:49:28;7.22;;;6.07;;
40515;SDS011;26216;53.724;9.898;2023-05-07T00:52:04;7.18;;;6.43;;
40515;SDS011;26216;53.724;9.898;2023-05-07T00:54:32;7.57;;;6.65;;
40515;SDS011;26216;53.724;9.898;2023-05-07T00:56:59;7.43;;;6.05;;
40515;SDS011;26216;53.724;9.898;2023-05-07T00:59:26;8.60;;;6.25;;
40515;SDS011;26216;53.724;9.898;2023-05-07T01:01:52;7.75;;;6.95;;
40515;SDS011;26216;53.724;9.898;2023-05-07T01:04:18;7.18;;;6.32;;
40515;SDS011;26216;53.724;9.898;2023-05-07T01:06:44;6.75;;;5.90;;
40515;SDS011;26216;53.724;9.898;2023-05-07T01:09:11;6.93;;;5.57;;
40515;SDS011;26216;53.724;9.898;2023-05-07T01:11:38;7.75;;;6.13;;
40515;SDS011;26216;53.724;9.898;2023-05-07T01:14:05;8.13;;;6.80;;
40515;SDS011;26216;53.724;9.898;2023-05-07T01:16:31;9.30;;;6.80;;
40515;SDS011;26216;53.724;9.898;2023-05-07T01:18:58;8.82;;;7.38;;
40515;SDS011;26216;53.724;9.898;2023-05-07T01:21:25;7.65;;;6.07;;
40515;SDS011;26216;53.724;9.898;2023-05-07T01:23:54;8.02;;;6.50;;
40515;SDS011;26216;53.724;9.898;2023-05-07T01:26:20;8.85;;;6.40;;
40515;SDS011;26216;53.724;9.898;2023-05-07T01:28:47;6.40;;;5.03;;
40515;SDS011;26216;53.724;9.898;2023-05-07T01:31:13;6.60;;;5.68;;
40515;SDS011;26216;53.724;9.898;2023-05-07T01:33:41;6.70;;;5.93;;
40515;SDS011;26216;53.724;9.898;2023-05-07T01:36:08;8.95;;;7.47;;
40515;SDS011;26216;53.724;9.898;2023-05-07T01:38:36;7.90;;;6.35;;
40515;SDS011;26216;53.724;9.898;2023-05-07T01:41:03;7.70;;;6.03;;
40515;SDS011;26216;53.724;9.898;2023-05-07T01:43:30;8.55;;;6.88;;
40515;SDS011;26216;53.724;9.898;2023-05-07T01:45:56;8.20;;;6.35;;
40515;SDS011;26216;53.724;9.898;2023-05-07T01:48:24;7.38;;;6.35;;
40515;SDS011;26216;53.724;9.898;2023-05-07T01:50:50;9.15;;;6.13;;
40515;SDS011;26216;53.724;9.898;2023-05-07T01:53:17;8.70;;;5.82;;
40515;SDS011;26216;53.724;9.898;2023-05-07T01:55:43;6.55;;;5.80;;
40515;SDS011;26216;53.724;9.898;2023-05-07T01:58:09;7.15;;;6.07;;
40515;SDS011;26216;53.724;9.898;2023-05-07T02:00:35;6.65;;;5.47;;
40515;SDS011;26216;53.724;9.898;2023-05-07T02:03:01;6.65;;;5.57;;
40515;SDS011;26216;53.724;9.898;2023-05-07T02:05:27;8.93;;;7.20;;
40515;SDS011;26216;53.724;9.898;2023-05-07T02:07:53;7.30;;;5.78;;
40515;SDS011;26216;53.724;9.898;2023-05-07T02:10:19;7.95;;;6.00;;
40515;SDS011;26216;53.724;9.898;2023-05-07T02:12:45;7.22;;;5.63;;
40515;SDS011;26216;53.724;9.898;2023-05-07T02:15:10;7.18;;;5.63;;
40515;SDS011;26216;53.724;9.898;2023-05-07T02:17:39;6.45;;;5.07;;
40515;SDS011;26216;53.724;9.898;2023-05-07T02:20:24;7.00;;;5.93;;
40515;SDS011;26216;53.724;9.898;2023-05-07T02:22:50;6.80;;;5.55;;
40515;SDS011;26216;53.724;9.898;2023-05-07T02:25:16;6.57;;;4.70;;
40515;SDS011;26216;53.724;9.898;2023-05-07T02:27:42;5.88;;;4.72;;
40515;SDS011;26216;53.724;9.898;2023-05-07T02:30:08;6.72;;;4.95;;
40515;SDS011;26216;53.724;9.898;2023-05-07T02:32:34;5.90;;;4.68;;
40515;SDS011;26216;53.724;9.898;2023-05-07T02:35:00;5.55;;;4.93;;
40515;SDS011;26216;53.724;9.898;2023-05-07T02:37:25;6.90;;;4.55;;
40515;SDS011;26216;53.724;9.898;2023-05-07T02:39:51;5.80;;;4.72;;
40515;SDS011;26216;53.724;9.898;2023-05-07T02:42:17;6.22;;;4.57;;
40515;SDS011;26216;53.724;9.898;2023-05-07T02:44:43;6.13;;;4.68;;
40515;SDS011;26216;53.724;9.898;2023-05-07T02:47:09;6.38;;;5.07;;
40515;SDS011;26216;53.724;9.898;2023-05-07T02:49:35;5.93;;;5.25;;
40515;SDS011;26216;53.724;9.898;2023-05-07T02:52:01;9.30;;;5.25;;
40515;SDS011;26216;53.724;9.898;2023-05-07T02:54:27;6.10;;;5.10;;
40515;SDS011;26216;53.724;9.898;2023-05-07T02:56:52;6.15;;;5.40;;
40515;SDS011;26216;53.724;9.898;2023-05-07T02:59:18;7.05;;;5.65;;
40515;SDS011;26216;53.724;9.898;2023-05-07T03:01:44;7.82;;;5.53;;
40515;SDS011;26216;53.724;9.898;2023-05-07T03:04:10;6.72;;;5.32;;
40515;SDS011;26216;53.724;9.898;2023-05-07T03:06:36;7.65;;;5.30;;
40515;SDS011;26216;53.724;9.898;2023-05-07T03:09:02;6.10;;;4.93;;
40515;SDS011;26216;53.724;9.898;2023-05-07T03:11:28;8.40;;;5.28;;
40515;SDS011;26216;53.724;9.898;2023-05-07T03:13:54;6.35;;;4.90;;
40515;SDS011;26216;53.724;9.898;2023-05-07T03:16:19;5.95;;;5.00;;
40515;SDS011;26216;53.724;9.898;2023-05-07T03:18:45;8.20;;;6.15;;
40515;SDS011;26216;53.724;9.898;2023-05-07T03:21:11;6.97;;;5.90;;
40515;SDS011;26216;53.724;9.898;2023-05-07T03:23:37;7.15;;;5.88;;
40515;SDS011;26216;53.724;9.898;2023-05-07T03:26:03;6.80;;;5.55;;
40515;SDS011;26216;53.724;9.898;2023-05-07T03:28:29;7.60;;;6.25;;
40515;SDS011;26216;53.724;9.898;2023-05-07T03:30:55;7.20;;;5.70;;
40515;SDS011;26216;53.724;9.898;2023-05-07T03:33:21;7.35;;;5.60;;
40515;SDS011;26216;53.724;9.898;2023-05-07T03:35:47;6.45;;;5.10;;
40515;SDS011;26216;53.724;9.898;2023-05-07T03:38:13;7.20;;;5.68;;
40515;SDS011;26216;53.724;9.898;2023-05-07T03:40:39;7.38;;;5.20;;
40515;SDS011;26216;53.724;9.898;2023-05-07T03:43:05;7.47;;;5.43;;
40515;SDS011;26216;53.724;9.898;2023-05-07T03:45:31;6.90;;;5.50;;
40515;SDS011;26216;53.724;9.898;2023-05-07T03:47:56;7.90;;;6.63;;
40515;SDS011;26216;53.724;9.898;2023-05-07T03:50:22;7.25;;;6.05;;
40515;SDS011;26216;53.724;9.898;2023-05-07T03:52:48;7.28;;;6.28;;
40515;SDS011;26216;53.724;9.898;2023-05-07T03:55:14;6.72;;;5.65;;
40515;SDS011;26216;53.724;9.898;2023-05-07T03:57:40;6.22;;;5.32;;
40515;SDS011;26216;53.724;9.898;2023-05-07T04:00:06;6.65;;;5.38;;
40515;SDS011;26216;53.724;9.898;2023-05-07T04:02:32;6.22;;;5.32;;
40515;SDS011;26216;53.724;9.898;2023-05-07T04:04:58;6.30;;;5.38;;
40515;SDS011;26216;53.724;9.898;2023-05-07T04:07:24;6.47;;;5.53;;
40515;SDS011;26216;53.724;9.898;2023-05-07T04:09:50;6.53;;;5.63;;
40515;SDS011;26216;53.724;9.898;2023-05-07T04:12:16;7.43;;;5.22;;
40515;SDS011;26216;53.724;9.898;2023-05-07T04:14:42;6.63;;;5.72;;
40515;SDS011;26216;53.724;9.898;2023-05-07T04:17:07;7.55;;;5.80;;
40515;SDS011;26216;53.724;9.898;2023-05-07T04:19:35;6.70;;;5.85;;
40515;SDS011;26216;53.724;9.898;2023-05-07T04:22:00;6.22;;;5.40;;
40515;SDS011;26216;53.724;9.898;2023-05-07T04:24:26;9.70;;;6.70;;
40515;SDS011;26216;53.724;9.898;2023-05-07T04:26:52;7.32;;;5.65;;
40515;SDS011;26216;53.724;9.898;2023-05-07T04:29:18;8.95;;;6.22;;
40515;SDS011;26216;53.724;9.898;2023-05-07T04:31:44;7.63;;;5.88;;
40515;SDS011;26216;53.724;9.898;2023-05-07T04:34:10;6.63;;;5.72;;
40515;SDS011;26216;53.724;9.898;2023-05-07T04:36:37;6.80;;;5.80;;
40515;SDS011;26216;53.724;9.898;2023-05-07T04:39:03;6.18;;;5.20;;
40515;SDS011;26216;53.724;9.898;2023-05-07T04:41:29;6.97;;;5.18;;
40515;SDS011;26216;53.724;9.898;2023-05-07T04:43:55;7.07;;;5.10;;
40515;SDS011;26216;53.724;9.898;2023-05-07T04:46:24;5.60;;;5.00;;
40515;SDS011;26216;53.724;9.898;2023-05-07T04:48:50;6.32;;;5.13;;
40515;SDS011;26216;53.724;9.898;2023-05-07T04:51:16;6.07;;;4.78;;
40515;SDS011;26216;53.724;9.898;2023-05-07T04:53:42;7.32;;;5.68;;
40515;SDS011;26216;53.724;9.898;2023-05-07T04:56:08;8.30;;;6.30;;
40515;SDS011;26216;53.724;9.898;2023-05-07T04:58:34;8.07;;;6.55;;
40515;SDS011;26216;53.724;9.898;2023-05-07T05:01:00;8.07;;;6.20;;
40515;SDS011;26216;53.724;9.898;2023-05-07T05:03:26;7.30;;;5.35;;
40515;SDS011;26216;53.724;9.898;2023-05-07T05:05:52;7.95;;;5.53;;
40515;SDS011;26216;53.724;9.898;2023-05-07T05:08:18;6.97;;;5.60;;
40515;SDS011;26216;53.724;9.898;2023-05-07T05:10:44;6.53;;;5.05;;
40515;SDS011;26216;53.724;9.898;2023-05-07T05:13:10;6.13;;;4.90;;
40515;SDS011;26216;53.724;9.898;2023-05-07T05:15:38;6.28;;;5.03;;
40515;SDS011;26216;53.724;9.898;2023-05-07T05:18:04;6.43;;;4.70;;
40515;SDS011;26216;53.724;9.898;2023-05-07T05:20:30;6.18;;;5.20;;
40515;SDS011;26216;53.724;9.898;2023-05-07T05:22:55;6.13;;;4.97;;
40515;SDS011;26216;53.724;9.898;2023-05-07T05:25:21;6.40;;;5.40;;
40515;SDS011;26216;53.724;9.898;2023-05-07T05:27:47;6.43;;;5.20;;
40515;SDS011;26216;53.724;9.898;2023-05-07T05:30:13;7.55;;;5.80;;
40515;SDS011;26216;53.724;9.898;2023-05-07T05:32:39;7.53;;;5.63;;
40515;SDS011;26216;53.724;9.898;2023-05-07T05:35:05;7.35;;;4.70;;
40515;SDS011;26216;53.724;9.898;2023-05-07T05:37:31;5.32;;;4.53;;
40515;SDS011;26216;53.724;9.898;2023-05-07T05:39:57;6.28;;;4.07;;
40515;SDS011;26216;53.724;9.898;2023-05-07T05:42:23;5.10;;;4.20;;
40515;SDS011;26216;53.724;9.898;2023-05-07T05:44:49;5.47;;;4.38;;
40515;SDS011;26216;53.724;9.898;2023-05-07T05:47:15;5.72;;;4.70;;
40515;SDS011;26216;53.724;9.898;2023-05-07T05:49:40;6.18;;;4.60;;
40515;SDS011;26216;53.724;9.898;2023-05-07T05:52:08;6.82;;;5.30;;
40515;SDS011;26216;53.724;9.898;2023-05-07T05:54:34;5.85;;;4.80;;
40515;SDS011;26216;53.724;9.898;2023-05-07T05:57:00;5.28;;;4.60;;
40515;SDS011;26216;53.724;9.898;2023-05-07T05:59:29;5.50;;;4.70;;
40515;SDS011;26216;53.724;9.898;2023-05-07T06:01:55;6.38;;;5.13;;
40515;SDS011;26216;53.724;9.898;2023-05-07T06:04:21;5.28;;;4.22;;
40515;SDS011;26216;53.724;9.898;2023-05-07T06:06:47;5.78;;;4.50;;
40515;SDS011;26216;53.724;9.898;2023-05-07T06:09:12;5.88;;;4.38;;
40515;SDS011;26216;53.724;9.898;2023-05-07T06:11:38;5.93;;;5.07;;
40515;SDS011;26216;53.724;9.898;2023-05-07T06:14:06;6.28;;;4.90;;
40515;SDS011;26216;53.724;9.898;2023-05-07T06:16:32;6.18;;;5.30;;
40515;SDS011;26216;53.724;9.898;2023-05-07T06:18:57;4.68;;;4.07;;
40515;SDS011;26216;53.724;9.898;2023-05-07T06:21:23;6.68;;;5.40;;
40515;SDS011;26216;53.724;9.898;2023-05-07T06:23:49;5.53;;;4.40;;
40515;SDS011;26216;53.724;9.898;2023-05-07T06:26:17;6.18;;;4.63;;
40515;SDS011;26216;53.724;9.898;2023-05-07T06:28:43;4.80;;;4.30;;
40515;SDS011;26216;53.724;9.898;2023-05-07T06:31:15;5.57;;;4.47;;
40515;SDS011;26216;53.724;9.898;2023-05-07T06:33:48;5.55;;;4.70;;
40515;SDS011;26216;53.724;9.898;2023-05-07T06:36:14;5.18;;;4.32;;
40515;SDS011;26216;53.724;9.898;2023-05-07T06:38:41;4.80;;;3.85;;
40515;SDS011;26216;53.724;9.898;2023-05-07T06:41:07;5.50;;;4.50;;
40515;SDS011;26216;53.724;9.898;2023-05-07T06:43:33;6.68;;;4.70;;
40515;SDS011;26216;53.724;9.898;2023-05-07T06:45:59;5.88;;;4.68;;
40515;SDS011;26216;53.724;9.898;2023-05-07T06:48:25;5.80;;;4.53;;
40515;SDS011;26216;53.724;9.898;2023-05-07T06:50:50;5.32;;;4.43;;
40515;SDS011;26216;53.724;9.898;2023-05-07T06:53:16;5.43;;;4.32;;
40515;SDS011;26216;53.724;9.898;2023-05-07T06:55:42;4.70;;;3.60;;
40515;SDS011;26216;53.724;9.898;2023-05-07T06:58:08;5.60;;;4.63;;
40515;SDS011;26216;53.724;9.898;2023-05-07T07:00:34;6.60;;;4.53;;
40515;SDS011;26216;53.724;9.898;2023-05-07T07:03:00;7.60;;;4.07;;
40515;SDS011;26216;53.724;9.898;2023-05-07T07:05:26;5.22;;;3.85;;
40515;SDS011;26216;53.724;9.898;2023-05-07T07:07:52;5.10;;;4.55;;
40515;SDS011;26216;53.724;9.898;2023-05-07T07:10:23;5.15;;;4.00;;
40515;SDS011;26216;53.724;9.898;2023-05-07T07:12:49;6.95;;;4.65;;
40515;SDS011;26216;53.724;9.898;2023-05-07T07:15:15;5.70;;;4.90;;
40515;SDS011;26216;53.724;9.898;2023-05-07T07:17:42;5.75;;;4.60;;
40515;SDS011;26216;53.724;9.898;2023-05-07T07:20:08;5.15;;;3.70;;
40515;SDS011;26216;53.724;9.898;2023-05-07T07:22:34;4.35;;;3.40;;
40515;SDS011;26216;53.724;9.898;2023-05-07T07:25:00;5.82;;;3.70;;
40515;SDS011;26216;53.724;9.898;2023-05-07T07:27:25;5.97;;;4.13;;
40515;SDS011;26216;53.724;9.898;2023-05-07T07:29:51;4.75;;;3.75;;
40515;SDS011;26216;53.724;9.898;2023-05-07T07:32:18;5.35;;;3.97;;
40515;SDS011;26216;53.724;9.898;2023-05-07T07:34:44;5.80;;;4.50;;
40515;SDS011;26216;53.724;9.898;2023-05-07T07:37:10;4.03;;;3.47;;
40515;SDS011;26216;53.724;9.898;2023-05-07T07:39:36;4.32;;;3.45;;
40515;SDS011;26216;53.724;9.898;2023-05-07T07:42:02;4.30;;;3.50;;
40515;SDS011;26216;53.724;9.898;2023-05-07T07:44:29;4.07;;;3.30;;
40515;SDS011;26216;53.724;9.898;2023-05-07T07:46:55;6.40;;;4.05;;
40515;SDS011;26216;53.724;9.898;2023-05-07T07:49:21;4.88;;;3.80;;
40515;SDS011;26216;53.724;9.898;2023-05-07T07:51:47;4.30;;;3.55;;
40515;SDS011;26216;53.724;9.898;2023-05-07T07:54:12;4.80;;;3.53;;
40515;SDS011;26216;53.724;9.898;2023-05-07T07:56:38;3.53;;;3.03;;
40515;SDS011;26216;53.724;9.898;2023-05-07T07:59:04;3.63;;;3.17;;
40515;SDS011;26216;53.724;9.898;2023-05-07T08:01:30;5.90;;;3.88;;
40515;SDS011;26216;53.724;9.898;2023-05-07T08:03:56;4.35;;;3.38;;
40515;SDS011;26216;53.724;9.898;2023-05-07T08:06:28;5.00;;;3.30;;
40515;SDS011;26216;53.724;9.898;2023-05-07T08:08:54;4.75;;;3.60;;
40515;SDS011;26216;53.724;9.898;2023-05-07T08:11:20;3.42;;;2.95;;
40515;SDS011;26216;53.724;9.898;2023-05-07T08:13:46;5.28;;;3.67;;
40515;SDS011;26216;53.724;9.898;2023-05-07T08:16:13;5.13;;;3.47;;
40515;SDS011;26216;53.724;9.898;2023-05-07T08:18:39;4.53;;;3.13;;
40515;SDS011;26216;53.724;9.898;2023-05-07T08:21:05;4.13;;;2.92;;
40515;SDS011;26216;53.724;9.898;2023-05-07T08:23:32;3.83;;;3.08;;
40515;SDS011;26216;53.724;9.898;2023-05-07T08:25:59;3.90;;;3.03;;
40515;SDS011;26216;53.724;9.898;2023-05-07T08:28:25;4.45;;;3.40;;
40515;SDS011;26216;53.724;9.898;2023-05-07T08:30:52;4.18;;;2.97;;
40515;SDS011;26216;53.724;9.898;2023-05-07T08:33:18;4.55;;;3.00;;
40515;SDS011;26216;53.724;9.898;2023-05-07T08:35:44;4.53;;;3.10;;
40515;SDS011;26216;53.724;9.898;2023-05-07T08:38:10;4.53;;;3.60;;
40515;SDS011;26216;53.724;9.898;2023-05-07T08:40:37;4.55;;;2.95;;
40515;SDS011;26216;53.724;9.898;2023-05-07T08:43:07;3.63;;;3.10;;
40515;SDS011;26216;53.724;9.898;2023-05-07T08:45:34;3.97;;;3.10;;
40515;SDS011;26216;53.724;9.898;2023-05-07T08:48:05;3.75;;;2.88;;
40515;SDS011;26216;53.724;9.898;2023-05-07T08:50:35;4.15;;;3.40;;
40515;SDS011;26216;53.724;9.898;2023-05-07T08:53:04;5.22;;;3.35;;
40515;SDS011;26216;53.724;9.898;2023-05-07T08:55:31;4.10;;;3.30;;
40515;SDS011;26216;53.724;9.898;2023-05-07T08:57:58;3.30;;;2.85;;
40515;SDS011;26216;53.724;9.898;2023-05-07T09:00:25;3.47;;;2.70;;
40515;SDS011;26216;53.724;9.898;2023-05-07T09:02:52;4.55;;;3.25;;
40515;SDS011;26216;53.724;9.898;2023-05-07T09:05:18;3.67;;;3.08;;
40515;SDS011;26216;53.724;9.898;2023-05-07T09:07:45;3.40;;;2.70;;
40515;SDS011;26216;53.724;9.898;2023-05-07T09:10:12;3.25;;;2.65;;
40515;SDS011;26216;53.724;9.898;2023-05-07T09:12:39;3.88;;;2.70;;
40515;SDS011;26216;53.724;9.898;2023-05-07T09:15:05;3.97;;;2.85;;
40515;SDS011;26216;53.724;9.898;2023-05-07T09:17:34;3.00;;;2.60;;
40515;SDS011;26216;53.724;9.898;2023-05-07T09:20:04;3.65;;;2.88;;
40515;SDS011;26216;53.724;9.898;2023-05-07T09:22:31;3.70;;;2.85;;
40515;SDS011;26216;53.724;9.898;2023-05-07T09:24:58;3.00;;;2.53;;
40515;SDS011;26216;53.724;9.898;2023-05-07T09:27:24;3.42;;;2.60;;
40515;SDS011;26216;53.724;9.898;2023-05-07T09:29:51;3.97;;;2.80;;
40515;SDS011;26216;53.724;9.898;2023-05-07T09:32:17;3.50;;;2.78;;
40515;SDS011;26216;53.724;9.898;2023-05-07T09:34:44;3.47;;;2.58;;
40515;SDS011;26216;53.724;9.898;2023-05-07T09:37:10;3.72;;;2.70;;
40515;SDS011;26216;53.724;9.898;2023-05-07T09:39:45;2.88;;;2.40;;
40515;SDS011;26216;53.724;9.898;2023-05-07T09:42:13;3.38;;;2.45;;
40515;SDS011;26216;53.724;9.898;2023-05-07T09:44:45;3.10;;;2.38;;
40515;SDS011;26216;53.724;9.898;2023-05-07T09:47:12;3.45;;;2.72;;
40515;SDS011;26216;53.724;9.898;2023-05-07T09:49:44;3.15;;;2.55;;
40515;SDS011;26216;53.724;9.898;2023-05-07T09:52:13;3.72;;;3.30;;
40515;SDS011;26216;53.724;9.898;2023-05-07T09:54:40;3.85;;;2.50;;
40515;SDS011;26216;53.724;9.898;2023-05-07T09:57:09;3.00;;;2.40;;
40515;SDS011;26216;53.724;9.898;2023-05-07T10:02:07;4.40;;;3.30;;
40515;SDS011;26216;53.724;9.898;2023-05-07T10:04:35;3.67;;;2.80;;
40515;SDS011;26216;53.724;9.898;2023-05-07T10:07:02;4.35;;;3.60;;
40515;SDS011;26216;53.724;9.898;2023-05-07T10:09:29;3.28;;;2.67;;
40515;SDS011;26216;53.724;9.898;2023-05-07T10:11:57;3.30;;;2.28;;
40515;SDS011;26216;53.724;9.898;2023-05-07T10:14:25;3.13;;;2.40;;
40515;SDS011;26216;53.724;9.898;2023-05-07T10:16:55;2.95;;;2.40;;
40515;SDS011;26216;53.724;9.898;2023-05-07T10:19:22;2.75;;;2.30;;
40515;SDS011;26216;53.724;9.898;2023-05-07T10:21:55;3.20;;;2.33;;
40515;SDS011;26216;53.724;9.898;2023-05-07T10:24:32;4.55;;;2.58;;
40515;SDS011;26216;53.724;9.898;2023-05-07T10:26:59;3.63;;;2.80;;
40515;SDS011;26216;53.724;9.898;2023-05-07T10:29:36;3.60;;;2.17;;
40515;SDS011;26216;53.724;9.898;2023-05-07T10:32:30;2.83;;;2.13;;
40515;SDS011;26216;53.724;9.898;2023-05-07T10:35:17;3.10;;;2.40;;
40515;SDS011;26216;53.724;9.898;2023-05-07T10:37:48;4.15;;;2.92;;
40515;SDS011;26216;53.724;9.898;2023-05-07T10:40:14;3.08;;;2.30;;
40515;SDS011;26216;53.724;9.898;2023-05-07T10:42:58;3.03;;;2.40;;
40515;SDS011;26216;53.724;9.898;2023-05-07T10:45:26;2.80;;;2.10;;
40515;SDS011;26216;53.724;9.898;2023-05-07T10:50:37;2.70;;;2.10;;
40515;SDS011;26216;53.724;9.898;2023-05-07T10:55:44;3.50;;;2.70;;
40515;SDS011;26216;53.724;9.898;2023-05-07T11:00:47;2.50;;;2.20;;
40515;SDS011;26216;53.724;9.898;2023-05-07T11:03:13;3.45;;;2.40;;
40515;SDS011;26216;53.724;9.898;2023-05-07T11:05:40;3.65;;;2.40;;
40515;SDS011;26216;53.724;9.898;2023-05-07T11:08:08;3.03;;;2.33;;
40515;SDS011;26216;53.724;9.898;2023-05-07T11:10:53;3.50;;;2.20;;
40515;SDS011;26216;53.724;9.898;2023-05-07T11:16:20;3.95;;;2.13;;
40515;SDS011;26216;53.724;9.898;2023-05-07T11:18:48;2.55;;;2.10;;
40515;SDS011;26216;53.724;9.898;2023-05-07T11:21:32;2.75;;;2.17;;
40515;SDS011;26216;53.724;9.898;2023-05-07T11:24:05;3.45;;;2.28;;
40515;SDS011;26216;53.724;9.898;2023-05-07T11:26:41;2.30;;;1.83;;
40515;SDS011;26216;53.724;9.898;2023-05-07T11:29:16;2.95;;;2.30;;
40515;SDS011;26216;53.724;9.898;2023-05-07T11:31:43;3.22;;;2.00;;
40515;SDS011;26216;53.724;9.898;2023-05-07T11:34:13;2.90;;;1.88;;
40515;SDS011;26216;53.724;9.898;2023-05-07T11:36:41;2.75;;;2.08;;
40515;SDS011;26216;53.724;9.898;2023-05-07T11:39:27;2.78;;;2.00;;
40515;SDS011;26216;53.724;9.898;2023-05-07T11:41:53;6.15;;;4.00;;
40515;SDS011;26216;53.724;9.898;2023-05-07T11:44:19;4.13;;;3.13;;
40515;SDS011;26216;53.724;9.898;2023-05-07T11:46:45;3.00;;;2.30;;
40515;SDS011;26216;53.724;9.898;2023-05-07T11:49:11;2.63;;;2.20;;
40515;SDS011;26216;53.724;9.898;2023-05-07T11:51:37;2.80;;;2.10;;
40515;SDS011;26216;53.724;9.898;2023-05-07T11:54:05;2.40;;;1.92;;
40515;SDS011;26216;53.724;9.898;2023-05-07T11:56:36;2.47;;;1.67;;
40515;SDS011;26216;53.724;9.898;2023-05-07T11:59:03;2.35;;;1.90;;
40515;SDS011;26216;53.724;9.898;2023-05-07T12:01:30;2.75;;;1.70;;
40515;SDS011;26216;53.724;9.898;2023-05-07T12:03:58;3.38;;;1.77;;
40515;SDS011;26216;53.724;9.898;2023-05-07T12:06:28;2.42;;;1.90;;
40515;SDS011;26216;53.724;9.898;2023-05-07T12:08:54;2.45;;;1.80;;
40515;SDS011;26216;53.724;9.898;2023-05-07T12:11:23;2.75;;;2.13;;
40515;SDS011;26216;53.724;9.898;2023-05-07T12:13:50;3.17;;;1.77;;
40515;SDS011;26216;53.724;9.898;2023-05-07T12:16:18;2.67;;;2.00;;
40515;SDS011;26216;53.724;9.898;2023-05-07T12:18:45;2.28;;;1.83;;
40515;SDS011;26216;53.724;9.898;2023-05-07T12:21:11;2.00;;;1.60;;
40515;SDS011;26216;53.724;9.898;2023-05-07T12:23:38;3.15;;;2.00;;
40515;SDS011;26216;53.724;9.898;2023-05-07T12:26:04;2.08;;;1.58;;
40515;SDS011;26216;53.724;9.898;2023-05-07T12:28:31;2.42;;;1.90;;
40515;SDS011;26216;53.724;9.898;2023-05-07T12:31:03;2.38;;;1.60;;
40515;SDS011;26216;53.724;9.898;2023-05-07T12:33:30;2.53;;;1.25;;
40515;SDS011;26216;53.724;9.898;2023-05-07T12:35:57;2.15;;;1.63;;
40515;SDS011;26216;53.724;9.898;2023-05-07T12:38:27;1.90;;;1.40;;
40515;SDS011;26216;53.724;9.898;2023-05-07T12:41:06;2.22;;;1.60;;
40515;SDS011;26216;53.724;9.898;2023-05-07T12:43:34;2.22;;;1.58;;
40515;SDS011;26216;53.724;9.898;2023-05-07T12:46:01;1.55;;;1.25;;
40515;SDS011;26216;53.724;9.898;2023-05-07T12:48:32;3.22;;;2.10;;
40515;SDS011;26216;53.724;9.898;2023-05-07T12:50:59;2.58;;;1.60;;
40515;SDS011;26216;53.724;9.898;2023-05-07T12:53:27;2.50;;;1.52;;
40515;SDS011;26216;53.724;9.898;2023-05-07T12:55:56;1.98;;;1.40;;
40515;SDS011;26216;53.724;9.898;2023-05-07T12:58:30;2.17;;;1.50;;
40515;SDS011;26216;53.724;9.898;2023-05-07T13:01:00;2.00;;;1.40;;
40515;SDS011;26216;53.724;9.898;2023-05-07T13:03:30;2.88;;;1.42;;
40515;SDS011;26216;53.724;9.898;2023-05-07T13:06:04;2.00;;;1.48;;
40515;SDS011;26216;53.724;9.898;2023-05-07T13:08:39;2.05;;;1.52;;
40515;SDS011;26216;53.724;9.898;2023-05-07T13:11:08;1.95;;;1.52;;
40515;SDS011;26216;53.724;9.898;2023-05-07T13:13:36;2.00;;;1.60;;
40515;SDS011;26216;53.724;9.898;2023-05-07T13:16:04;1.83;;;1.38;;
40515;SDS011;26216;53.724;9.898;2023-05-07T13:18:31;1.98;;;1.30;;
40515;SDS011;26216;53.724;9.898;2023-05-07T13:21:00;2.33;;;1.52;;
40515;SDS011;26216;53.724;9.898;2023-05-07T13:23:27;4.03;;;1.77;;
40515;SDS011;26216;53.724;9.898;2023-05-07T13:25:56;2.58;;;1.80;;
40515;SDS011;26216;53.724;9.898;2023-05-07T13:28:24;1.98;;;1.40;;
40515;SDS011;26216;53.724;9.898;2023-05-07T13:30:52;2.03;;;1.52;;
40515;SDS011;26216;53.724;9.898;2023-05-07T13:33:27;1.20;;;1.10;;
40515;SDS011;26216;53.724;9.898;2023-05-07T13:35:53;2.78;;;1.40;;
40515;SDS011;26216;53.724;9.898;2023-05-07T13:38:23;2.05;;;1.10;;
40515;SDS011;26216;53.724;9.898;2023-05-07T13:40:49;2.05;;;1.25;;
40515;SDS011;26216;53.724;9.898;2023-05-07T13:43:16;1.80;;;1.20;;
40515;SDS011;26216;53.724;9.898;2023-05-07T13:45:44;1.42;;;1.10;;
40515;SDS011;26216;53.724;9.898;2023-05-07T13:48:10;1.33;;;1.10;;
40515;SDS011;26216;53.724;9.898;2023-05-07T13:50:41;1.25;;;1.05;;
40515;SDS011;26216;53.724;9.898;2023-05-07T13:53:08;1.48;;;1.10;;
40515;SDS011;26216;53.724;9.898;2023-05-07T13:55:36;1.88;;;1.20;;
40515;SDS011;26216;53.724;9.898;2023-05-07T13:58:03;2.20;;;0.98;;
40515;SDS011;26216;53.724;9.898;2023-05-07T14:00:33;1.50;;;1.20;;
40515;SDS011;26216;53.724;9.898;2023-05-07T14:03:05;1.85;;;1.20;;
40515;SDS011;26216;53.724;9.898;2023-05-07T14:05:32;1.70;;;1.20;;
40515;SDS011;26216;53.724;9.898;2023-05-07T14:07:58;1.55;;;1.23;;
40515;SDS011;26216;53.724;9.898;2023-05-07T14:10:25;1.67;;;1.05;;
40515;SDS011;26216;53.724;9.898;2023-05-07T14:12:52;1.10;;;0.90;;
40515;SDS011;26216;53.724;9.898;2023-05-07T14:15:19;1.70;;;1.10;;
40515;SDS011;26216;53.724;9.898;2023-05-07T14:17:46;4.70;;;1.73;;
40515;SDS011;26216;53.724;9.898;2023-05-07T14:20:15;1.30;;;1.10;;
40515;SDS011;26216;53.724;9.898;2023-05-07T14:22:44;1.50;;;0.98;;
40515;SDS011;26216;53.724;9.898;2023-05-07T14:25:13;1.20;;;1.00;;
40515;SDS011;26216;53.724;9.898;2023-05-07T14:27:44;1.42;;;1.20;;
40515;SDS011;26216;53.724;9.898;2023-05-07T14:30:13;1.95;;;1.45;;
40515;SDS011;26216;53.724;9.898;2023-05-07T14:32:43;1.00;;;0.90;;
40515;SDS011;26216;53.724;9.898;2023-05-07T14:35:10;1.95;;;1.20;;
40515;SDS011;26216;53.724;9.898;2023-05-07T14:37:36;1.35;;;1.05;;
40515;SDS011;26216;53.724;9.898;2023-05-07T14:40:03;3.35;;;1.00;;
40515;SDS011;26216;53.724;9.898;2023-05-07T14:42:31;1.67;;;1.20;;
40515;SDS011;26216;53.724;9.898;2023-05-07T14:44:58;1.58;;;1.40;;
40515;SDS011;26216;53.724;9.898;2023-05-07T14:47:25;2.05;;;1.77;;
40515;SDS011;26216;53.724;9.898;2023-05-07T14:49:51;1.80;;;1.40;;
40515;SDS011;26216;53.724;9.898;2023-05-07T14:52:18;1.50;;;1.20;;
40515;SDS011;26216;53.724;9.898;2023-05-07T14:54:44;1.75;;;1.13;;
40515;SDS011;26216;53.724;9.898;2023-05-07T14:57:10;1.60;;;1.10;;
40515;SDS011;26216;53.724;9.898;2023-05-07T14:59:41;1.75;;;1.40;;
40515;SDS011;26216;53.724;9.898;2023-05-07T15:02:08;1.50;;;1.10;;